sensor_id;sensor_type;location;lat;lon;timestamp;P1;durP1;ratioP1;P2;durP2;ratioP2
67597;SDS011;62026;39.230;9.122;2022-12-31T00:02:14;33.83;;;15.55;;
67597;SDS011;62026;39.230;9.122;2022-12-31T00:04:40;35.85;;;15.27;;
67597;SDS011;62026;39.230;9.122;2022-12-31T00:07:06;30.88;;;14.90;;
67597;SDS011;62026;39.230;9.122;2022-12-31T00:09:32;27.58;;;14.02;;
67597;SDS011;62026;39.230;9.122;2022-12-31T00:11:58;37.22;;;14.55;;
67597;SDS011;62026;39.230;9.122;2022-12-31T00:14:24;26.00;;;12.40;;
67597;SDS011;62026;39.230;9.122;2022-12-31T00:16:50;27.23;;;13.18;;
67597;SDS011;62026;39.230;9.122;2022-12-31T00:19:16;30.35;;;12.95;;
67597;SDS011;62026;39.230;9.122;2022-12-31T00:21:42;29.85;;;12.23;;
67597;SDS011;62026;39.230;9.122;2022-12-31T00:24:09;25.48;;;11.65;;
67597;SDS011;62026;39.230;9.122;2022-12-31T00:26:37;29.52;;;12.25;;
67597;SDS011;62026;39.230;9.122;2022-12-31T00:29:03;29.08;;;10.68;;
67597;SDS011;62026;39.230;9.122;2022-12-31T00:31:31;21.35;;;10.38;;
67597;SDS011;62026;39.230;9.122;2022-12-31T00:34:00;20.63;;;10.02;;
67597;SDS011;62026;39.230;9.122;2022-12-31T00:36:29;22.55;;;9.27;;
67597;SDS011;62026;39.230;9.122;2022-12-31T00:39:04;26.30;;;9.65;;
67597;SDS011;62026;39.230;9.122;2022-12-31T00:41:32;21.10;;;9.55;;
67597;SDS011;62026;39.230;9.122;2022-12-31T00:43:58;17.80;;;9.93;;
67597;SDS011;62026;39.230;9.122;2022-12-31T00:46:25;30.48;;;12.30;;
67597;SDS011;62026;39.230;9.122;2022-12-31T00:48:51;27.90;;;11.98;;
67597;SDS011;62026;39.230;9.122;2022-12-31T00:51:19;27.80;;;12.48;;
67597;SDS011;62026;39.230;9.122;2022-12-31T00:53:47;24.63;;;12.40;;
67597;SDS011;62026;39.230;9.122;2022-12-31T00:56:15;25.83;;;12.45;;
67597;SDS011;62026;39.230;9.122;2022-12-31T00:58:47;29.20;;;12.43;;
67597;SDS011;62026;39.230;9.122;2022-12-31T01:01:22;25.42;;;11.50;;
67597;SDS011;62026;39.230;9.122;2022-12-31T01:03:57;21.08;;;10.52;;
67597;SDS011;62026;39.230;9.122;2022-12-31T01:06:27;17.60;;;9.57;;
67597;SDS011;62026;39.230;9.122;2022-12-31T01:08:53;23.73;;;9.73;;
67597;SDS011;62026;39.230;9.122;2022-12-31T01:11:19;19.13;;;9.30;;
67597;SDS011;62026;39.230;9.122;2022-12-31T01:13:51;19.23;;;8.90;;
67597;SDS011;62026;39.230;9.122;2022-12-31T01:16:28;21.20;;;8.27;;
67597;SDS011;62026;39.230;9.122;2022-12-31T01:18:59;19.80;;;9.48;;
67597;SDS011;62026;39.230;9.122;2022-12-31T01:21:29;23.20;;;9.10;;
67597;SDS011;62026;39.230;9.122;2022-12-31T01:23:56;19.75;;;8.20;;
67597;SDS011;62026;39.230;9.122;2022-12-31T01:26:24;21.63;;;8.07;;
67597;SDS011;62026;39.230;9.122;2022-12-31T01:28:50;19.70;;;8.30;;
67597;SDS011;62026;39.230;9.122;2022-12-31T01:31:17;16.98;;;7.80;;
67597;SDS011;62026;39.230;9.122;2022-12-31T01:33:45;20.17;;;8.10;;
67597;SDS011;62026;39.230;9.122;2022-12-31T01:36:14;24.23;;;8.18;;
67597;SDS011;62026;39.230;9.122;2022-12-31T01:38:44;23.35;;;8.52;;
67597;SDS011;62026;39.230;9.122;2022-12-31T01:41:11;17.02;;;7.63;;
67597;SDS011;62026;39.230;9.122;2022-12-31T01:43:46;18.77;;;8.02;;
67597;SDS011;62026;39.230;9.122;2022-12-31T01:50:02;17.05;;;7.97;;
67597;SDS011;62026;39.230;9.122;2022-12-31T01:54:52;18.65;;;7.90;;
67597;SDS011;62026;39.230;9.122;2022-12-31T01:57:30;17.45;;;7.93;;
67597;SDS011;62026;39.230;9.122;2022-12-31T01:59:56;16.70;;;8.05;;
67597;SDS011;62026;39.230;9.122;2022-12-31T02:02:24;19.52;;;9.10;;
67597;SDS011;62026;39.230;9.122;2022-12-31T02:04:51;22.92;;;8.35;;
67597;SDS011;62026;39.230;9.122;2022-12-31T02:07:22;17.27;;;8.35;;
67597;SDS011;62026;39.230;9.122;2022-12-31T02:09:48;20.45;;;8.10;;
67597;SDS011;62026;39.230;9.122;2022-12-31T02:12:16;18.33;;;8.35;;
67597;SDS011;62026;39.230;9.122;2022-12-31T02:14:42;19.92;;;8.43;;
67597;SDS011;62026;39.230;9.122;2022-12-31T02:28:52;15.05;;;8.15;;
67597;SDS011;62026;39.230;9.122;2022-12-31T02:31:57;20.27;;;8.30;;
67597;SDS011;62026;39.230;9.122;2022-12-31T02:34:37;19.38;;;8.52;;
67597;SDS011;62026;39.230;9.122;2022-12-31T02:37:11;19.30;;;8.30;;
67597;SDS011;62026;39.230;9.122;2022-12-31T02:39:41;17.67;;;8.55;;
67597;SDS011;62026;39.230;9.122;2022-12-31T02:42:09;15.68;;;7.70;;
67597;SDS011;62026;39.230;9.122;2022-12-31T02:44:37;23.98;;;9.05;;
67597;SDS011;62026;39.230;9.122;2022-12-31T02:50:04;15.13;;;7.65;;
67597;SDS011;62026;39.230;9.122;2022-12-31T02:55:54;16.05;;;8.07;;
67597;SDS011;62026;39.230;9.122;2022-12-31T03:01:36;12.70;;;7.18;;
67597;SDS011;62026;39.230;9.122;2022-12-31T03:04:26;18.02;;;7.80;;
67597;SDS011;62026;39.230;9.122;2022-12-31T03:09:33;16.23;;;7.53;;
67597;SDS011;62026;39.230;9.122;2022-12-31T03:12:00;16.80;;;7.25;;
67597;SDS011;62026;39.230;9.122;2022-12-31T03:14:47;18.00;;;7.18;;
67597;SDS011;62026;39.230;9.122;2022-12-31T03:17:14;13.02;;;7.05;;
67597;SDS011;62026;39.230;9.122;2022-12-31T03:19:40;16.23;;;7.47;;
67597;SDS011;62026;39.230;9.122;2022-12-31T03:22:25;16.95;;;6.95;;
67597;SDS011;62026;39.230;9.122;2022-12-31T03:24:58;11.95;;;6.50;;
67597;SDS011;62026;39.230;9.122;2022-12-31T03:27:51;16.75;;;6.93;;
67597;SDS011;62026;39.230;9.122;2022-12-31T03:30:19;16.45;;;6.93;;
67597;SDS011;62026;39.230;9.122;2022-12-31T03:32:47;15.32;;;7.10;;
67597;SDS011;62026;39.230;9.122;2022-12-31T03:35:15;18.77;;;7.40;;
67597;SDS011;62026;39.230;9.122;2022-12-31T03:37:44;13.02;;;6.10;;
67597;SDS011;62026;39.230;9.122;2022-12-31T03:40:12;18.20;;;6.00;;
67597;SDS011;62026;39.230;9.122;2022-12-31T03:42:39;15.02;;;7.15;;
67597;SDS011;62026;39.230;9.122;2022-12-31T03:45:06;17.17;;;6.43;;
67597;SDS011;62026;39.230;9.122;2022-12-31T03:47:35;13.82;;;6.68;;
67597;SDS011;62026;39.230;9.122;2022-12-31T03:50:01;16.98;;;7.10;;
67597;SDS011;62026;39.230;9.122;2022-12-31T03:52:28;14.65;;;6.53;;
67597;SDS011;62026;39.230;9.122;2022-12-31T03:54:54;14.48;;;6.72;;
67597;SDS011;62026;39.230;9.122;2022-12-31T03:57:20;20.67;;;6.50;;
67597;SDS011;62026;39.230;9.122;2022-12-31T03:59:48;15.40;;;6.50;;
67597;SDS011;62026;39.230;9.122;2022-12-31T04:02:14;18.27;;;6.78;;
67597;SDS011;62026;39.230;9.122;2022-12-31T04:04:40;19.83;;;6.90;;
67597;SDS011;62026;39.230;9.122;2022-12-31T04:07:06;13.82;;;6.38;;
67597;SDS011;62026;39.230;9.122;2022-12-31T04:09:33;24.63;;;7.35;;
67597;SDS011;62026;39.230;9.122;2022-12-31T04:11:59;24.85;;;6.82;;
67597;SDS011;62026;39.230;9.122;2022-12-31T04:14:26;15.02;;;6.47;;
67597;SDS011;62026;39.230;9.122;2022-12-31T04:16:52;14.60;;;6.57;;
67597;SDS011;62026;39.230;9.122;2022-12-31T04:19:18;15.15;;;6.93;;
67597;SDS011;62026;39.230;9.122;2022-12-31T04:21:44;18.17;;;6.80;;
67597;SDS011;62026;39.230;9.122;2022-12-31T04:24:11;17.05;;;7.10;;
67597;SDS011;62026;39.230;9.122;2022-12-31T04:26:37;18.10;;;6.93;;
67597;SDS011;62026;39.230;9.122;2022-12-31T04:29:03;15.23;;;7.35;;
67597;SDS011;62026;39.230;9.122;2022-12-31T04:31:30;17.77;;;7.25;;
67597;SDS011;62026;39.230;9.122;2022-12-31T04:33:56;14.90;;;7.00;;
67597;SDS011;62026;39.230;9.122;2022-12-31T04:36:22;16.73;;;7.22;;
67597;SDS011;62026;39.230;9.122;2022-12-31T04:38:48;16.10;;;7.30;;
67597;SDS011;62026;39.230;9.122;2022-12-31T04:41:14;19.27;;;7.95;;
67597;SDS011;62026;39.230;9.122;2022-12-31T04:43:46;17.50;;;8.18;;
67597;SDS011;62026;39.230;9.122;2022-12-31T04:46:19;17.92;;;7.80;;
67597;SDS011;62026;39.230;9.122;2022-12-31T04:48:51;17.33;;;7.97;;
67597;SDS011;62026;39.230;9.122;2022-12-31T04:51:17;12.95;;;7.93;;
67597;SDS011;62026;39.230;9.122;2022-12-31T04:53:44;15.88;;;7.38;;
67597;SDS011;62026;39.230;9.122;2022-12-31T04:56:10;14.50;;;7.38;;
67597;SDS011;62026;39.230;9.122;2022-12-31T04:58:37;16.95;;;8.32;;
67597;SDS011;62026;39.230;9.122;2022-12-31T05:01:04;16.88;;;8.20;;
67597;SDS011;62026;39.230;9.122;2022-12-31T05:03:31;13.82;;;7.35;;
67597;SDS011;62026;39.230;9.122;2022-12-31T05:06:01;19.48;;;7.28;;
67597;SDS011;62026;39.230;9.122;2022-12-31T05:08:31;24.00;;;7.78;;
67597;SDS011;62026;39.230;9.122;2022-12-31T05:10:58;14.13;;;7.68;;
67597;SDS011;62026;39.230;9.122;2022-12-31T05:13:24;14.40;;;6.88;;
67597;SDS011;62026;39.230;9.122;2022-12-31T05:15:51;20.00;;;8.30;;
67597;SDS011;62026;39.230;9.122;2022-12-31T05:18:17;16.33;;;8.00;;
67597;SDS011;62026;39.230;9.122;2022-12-31T05:20:44;18.52;;;7.85;;
67597;SDS011;62026;39.230;9.122;2022-12-31T05:23:11;21.48;;;8.07;;
67597;SDS011;62026;39.230;9.122;2022-12-31T05:25:39;17.92;;;8.25;;
67597;SDS011;62026;39.230;9.122;2022-12-31T05:28:08;18.30;;;8.60;;
67597;SDS011;62026;39.230;9.122;2022-12-31T05:30:35;18.80;;;7.93;;
67597;SDS011;62026;39.230;9.122;2022-12-31T05:33:01;14.05;;;6.97;;
67597;SDS011;62026;39.230;9.122;2022-12-31T05:35:28;17.25;;;7.63;;
67597;SDS011;62026;39.230;9.122;2022-12-31T05:37:54;16.85;;;8.02;;
67597;SDS011;62026;39.230;9.122;2022-12-31T05:40:20;16.17;;;7.70;;
67597;SDS011;62026;39.230;9.122;2022-12-31T05:42:46;20.10;;;8.88;;
67597;SDS011;62026;39.230;9.122;2022-12-31T05:45:13;18.83;;;8.23;;
67597;SDS011;62026;39.230;9.122;2022-12-31T05:47:40;17.92;;;7.90;;
67597;SDS011;62026;39.230;9.122;2022-12-31T05:50:08;19.48;;;7.93;;
67597;SDS011;62026;39.230;9.122;2022-12-31T05:52:37;18.40;;;7.80;;
67597;SDS011;62026;39.230;9.122;2022-12-31T05:55:03;16.55;;;8.13;;
67597;SDS011;62026;39.230;9.122;2022-12-31T05:57:30;17.25;;;7.25;;
67597;SDS011;62026;39.230;9.122;2022-12-31T05:59:56;13.55;;;6.97;;
67597;SDS011;62026;39.230;9.122;2022-12-31T06:02:22;14.50;;;7.53;;
67597;SDS011;62026;39.230;9.122;2022-12-31T06:04:48;16.10;;;7.43;;
67597;SDS011;62026;39.230;9.122;2022-12-31T06:07:14;18.15;;;6.93;;
67597;SDS011;62026;39.230;9.122;2022-12-31T06:09:40;18.90;;;6.88;;
67597;SDS011;62026;39.230;9.122;2022-12-31T06:12:06;19.15;;;7.53;;
67597;SDS011;62026;39.230;9.122;2022-12-31T06:14:33;16.23;;;7.03;;
67597;SDS011;62026;39.230;9.122;2022-12-31T06:16:59;14.07;;;7.32;;
67597;SDS011;62026;39.230;9.122;2022-12-31T06:19:26;13.27;;;6.70;;
67597;SDS011;62026;39.230;9.122;2022-12-31T06:21:52;14.77;;;6.75;;
67597;SDS011;62026;39.230;9.122;2022-12-31T06:24:18;16.35;;;7.38;;
67597;SDS011;62026;39.230;9.122;2022-12-31T06:26:44;13.73;;;6.55;;
67597;SDS011;62026;39.230;9.122;2022-12-31T06:29:10;16.38;;;6.47;;
67597;SDS011;62026;39.230;9.122;2022-12-31T06:31:36;10.20;;;5.97;;
67597;SDS011;62026;39.230;9.122;2022-12-31T06:34:03;17.27;;;6.75;;
67597;SDS011;62026;39.230;9.122;2022-12-31T06:36:29;18.52;;;6.53;;
67597;SDS011;62026;39.230;9.122;2022-12-31T06:38:55;18.33;;;6.70;;
67597;SDS011;62026;39.230;9.122;2022-12-31T06:41:21;11.95;;;6.53;;
67597;SDS011;62026;39.230;9.122;2022-12-31T06:43:47;14.75;;;6.95;;
67597;SDS011;62026;39.230;9.122;2022-12-31T06:46:14;16.25;;;7.45;;
67597;SDS011;62026;39.230;9.122;2022-12-31T06:48:42;23.15;;;7.35;;
67597;SDS011;62026;39.230;9.122;2022-12-31T06:51:10;19.48;;;8.13;;
67597;SDS011;62026;39.230;9.122;2022-12-31T06:53:42;23.83;;;8.40;;
67597;SDS011;62026;39.230;9.122;2022-12-31T06:56:14;23.35;;;8.60;;
67597;SDS011;62026;39.230;9.122;2022-12-31T06:58:49;24.90;;;8.20;;
67597;SDS011;62026;39.230;9.122;2022-12-31T07:21:17;15.85;;;7.13;;
67597;SDS011;62026;39.230;9.122;2022-12-31T07:23:56;12.85;;;7.00;;
67597;SDS011;62026;39.230;9.122;2022-12-31T07:26:30;16.00;;;7.63;;
67597;SDS011;62026;39.230;9.122;2022-12-31T07:36:00;16.67;;;8.10;;
67597;SDS011;62026;39.230;9.122;2022-12-31T07:38:49;14.02;;;7.88;;
67597;SDS011;62026;39.230;9.122;2022-12-31T07:47:02;16.42;;;8.43;;
67597;SDS011;62026;39.230;9.122;2022-12-31T07:49:32;18.75;;;8.48;;
67597;SDS011;62026;39.230;9.122;2022-12-31T07:52:07;14.52;;;9.00;;
67597;SDS011;62026;39.230;9.122;2022-12-31T07:54:34;15.98;;;8.70;;
67597;SDS011;62026;39.230;9.122;2022-12-31T07:57:00;21.45;;;8.55;;
67597;SDS011;62026;39.230;9.122;2022-12-31T08:12:32;13.75;;;7.10;;
67597;SDS011;62026;39.230;9.122;2022-12-31T08:15:02;10.93;;;6.80;;
67597;SDS011;62026;39.230;9.122;2022-12-31T08:17:37;18.50;;;7.70;;
67597;SDS011;62026;39.230;9.122;2022-12-31T08:20:03;16.27;;;7.40;;
67597;SDS011;62026;39.230;9.122;2022-12-31T08:22:38;14.98;;;6.78;;
67597;SDS011;62026;39.230;9.122;2022-12-31T08:25:31;18.33;;;7.25;;
67597;SDS011;62026;39.230;9.122;2022-12-31T08:33:41;21.10;;;7.63;;
67597;SDS011;62026;39.230;9.122;2022-12-31T08:39:00;18.58;;;6.68;;
67597;SDS011;62026;39.230;9.122;2022-12-31T08:42:21;11.27;;;6.55;;
67597;SDS011;62026;39.230;9.122;2022-12-31T08:50:42;22.55;;;6.85;;
67597;SDS011;62026;39.230;9.122;2022-12-31T08:53:08;15.65;;;6.97;;
67597;SDS011;62026;39.230;9.122;2022-12-31T08:55:35;16.77;;;7.00;;
67597;SDS011;62026;39.230;9.122;2022-12-31T09:00:49;18.58;;;7.38;;
67597;SDS011;62026;39.230;9.122;2022-12-31T09:08:53;20.98;;;7.40;;
67597;SDS011;62026;39.230;9.122;2022-12-31T09:11:50;15.57;;;6.88;;
67597;SDS011;62026;39.230;9.122;2022-12-31T09:14:49;20.98;;;7.30;;
67597;SDS011;62026;39.230;9.122;2022-12-31T09:17:49;18.58;;;6.57;;
67597;SDS011;62026;39.230;9.122;2022-12-31T09:22:57;17.92;;;6.65;;
67597;SDS011;62026;39.230;9.122;2022-12-31T09:25:24;14.02;;;6.45;;
67597;SDS011;62026;39.230;9.122;2022-12-31T09:30:47;21.85;;;6.55;;
67597;SDS011;62026;39.230;9.122;2022-12-31T09:36:29;15.50;;;6.10;;
67597;SDS011;62026;39.230;9.122;2022-12-31T09:39:55;17.92;;;6.07;;
67597;SDS011;62026;39.230;9.122;2022-12-31T09:51:50;15.70;;;5.57;;
67597;SDS011;62026;39.230;9.122;2022-12-31T09:54:27;14.27;;;5.90;;
67597;SDS011;62026;39.230;9.122;2022-12-31T10:03:15;17.50;;;6.30;;
67597;SDS011;62026;39.230;9.122;2022-12-31T10:12:43;19.55;;;6.90;;
67597;SDS011;62026;39.230;9.122;2022-12-31T10:18:44;24.90;;;8.00;;
67597;SDS011;62026;39.230;9.122;2022-12-31T10:30:17;20.33;;;8.25;;
67597;SDS011;62026;39.230;9.122;2022-12-31T10:35:59;22.92;;;7.88;;
67597;SDS011;62026;39.230;9.122;2022-12-31T10:51:03;26.27;;;8.05;;
67597;SDS011;62026;39.230;9.122;2022-12-31T11:09:02;18.35;;;7.18;;
67597;SDS011;62026;39.230;9.122;2022-12-31T11:12:04;19.17;;;6.47;;
67597;SDS011;62026;39.230;9.122;2022-12-31T11:23:15;23.17;;;7.00;;
67597;SDS011;62026;39.230;9.122;2022-12-31T11:29:28;16.20;;;6.50;;
67597;SDS011;62026;39.230;9.122;2022-12-31T11:38:01;15.98;;;5.50;;
67597;SDS011;62026;39.230;9.122;2022-12-31T11:40:40;17.30;;;5.38;;
67597;SDS011;62026;39.230;9.122;2022-12-31T11:56:15;16.27;;;4.30;;
67597;SDS011;62026;39.230;9.122;2022-12-31T11:58:50;13.35;;;4.32;;
67597;SDS011;62026;39.230;9.122;2022-12-31T12:01:22;10.98;;;4.10;;
67597;SDS011;62026;39.230;9.122;2022-12-31T12:03:58;10.50;;;3.88;;
67597;SDS011;62026;39.230;9.122;2022-12-31T12:06:27;19.58;;;4.18;;
67597;SDS011;62026;39.230;9.122;2022-12-31T12:09:08;13.48;;;4.07;;
67597;SDS011;62026;39.230;9.122;2022-12-31T12:11:40;13.40;;;4.40;;
67597;SDS011;62026;39.230;9.122;2022-12-31T12:16:54;16.85;;;5.10;;
67597;SDS011;62026;39.230;9.122;2022-12-31T12:19:23;28.05;;;13.02;;
67597;SDS011;62026;39.230;9.122;2022-12-31T12:21:54;20.73;;;6.05;;
67597;SDS011;62026;39.230;9.122;2022-12-31T12:24:24;16.10;;;4.80;;
67597;SDS011;62026;39.230;9.122;2022-12-31T12:26:53;20.58;;;4.65;;
67597;SDS011;62026;39.230;9.122;2022-12-31T12:29:31;17.70;;;4.72;;
67597;SDS011;62026;39.230;9.122;2022-12-31T12:32:03;10.55;;;3.92;;
67597;SDS011;62026;39.230;9.122;2022-12-31T12:34:50;14.60;;;3.90;;
67597;SDS011;62026;39.230;9.122;2022-12-31T12:40:01;18.67;;;4.38;;
67597;SDS011;62026;39.230;9.122;2022-12-31T12:42:33;15.57;;;4.00;;
67597;SDS011;62026;39.230;9.122;2022-12-31T12:45:21;14.93;;;4.00;;
67597;SDS011;62026;39.230;9.122;2022-12-31T12:47:58;13.80;;;3.92;;
67597;SDS011;62026;39.230;9.122;2022-12-31T12:50:37;21.58;;;3.97;;
67597;SDS011;62026;39.230;9.122;2022-12-31T12:59:17;19.85;;;4.30;;
67597;SDS011;62026;39.230;9.122;2022-12-31T13:04:42;11.13;;;3.42;;
67597;SDS011;62026;39.230;9.122;2022-12-31T13:19:33;12.48;;;3.20;;
67597;SDS011;62026;39.230;9.122;2022-12-31T13:22:16;11.32;;;3.55;;
67597;SDS011;62026;39.230;9.122;2022-12-31T13:25:14;13.52;;;3.30;;
67597;SDS011;62026;39.230;9.122;2022-12-31T13:27:47;11.00;;;3.20;;
67597;SDS011;62026;39.230;9.122;2022-12-31T13:30:20;16.87;;;3.70;;
67597;SDS011;62026;39.230;9.122;2022-12-31T13:35:57;13.25;;;3.45;;
67597;SDS011;62026;39.230;9.122;2022-12-31T13:38:33;11.65;;;4.05;;
67597;SDS011;62026;39.230;9.122;2022-12-31T13:41:10;18.98;;;3.50;;
67597;SDS011;62026;39.230;9.122;2022-12-31T13:52:29;16.90;;;3.33;;
67597;SDS011;62026;39.230;9.122;2022-12-31T13:55:21;18.27;;;2.95;;
67597;SDS011;62026;39.230;9.122;2022-12-31T14:01:11;15.05;;;3.10;;
67597;SDS011;62026;39.230;9.122;2022-12-31T14:09:04;11.50;;;2.50;;
67597;SDS011;62026;39.230;9.122;2022-12-31T14:11:41;18.88;;;3.63;;
67597;SDS011;62026;39.230;9.122;2022-12-31T14:25:55;11.38;;;2.78;;
67597;SDS011;62026;39.230;9.122;2022-12-31T14:28:37;10.00;;;2.90;;
67597;SDS011;62026;39.230;9.122;2022-12-31T14:36:58;12.00;;;2.90;;
67597;SDS011;62026;39.230;9.122;2022-12-31T14:51:34;12.57;;;2.97;;
67597;SDS011;62026;39.230;9.122;2022-12-31T14:54:01;12.00;;;3.35;;
67597;SDS011;62026;39.230;9.122;2022-12-31T14:59:01;12.18;;;3.38;;
67597;SDS011;62026;39.230;9.122;2022-12-31T15:01:28;11.10;;;3.08;;
67597;SDS011;62026;39.230;9.122;2022-12-31T15:03:55;14.13;;;3.22;;
67597;SDS011;62026;39.230;9.122;2022-12-31T15:08:55;14.77;;;3.15;;
67597;SDS011;62026;39.230;9.122;2022-12-31T15:23:21;19.02;;;3.92;;
67597;SDS011;62026;39.230;9.122;2022-12-31T15:26:02;13.05;;;3.55;;
67597;SDS011;62026;39.230;9.122;2022-12-31T15:28:34;15.05;;;3.45;;
67597;SDS011;62026;39.230;9.122;2022-12-31T15:33:57;13.07;;;3.67;;
67597;SDS011;62026;39.230;9.122;2022-12-31T15:36:28;18.63;;;4.25;;
67597;SDS011;62026;39.230;9.122;2022-12-31T15:41:47;9.75;;;4.10;;
67597;SDS011;62026;39.230;9.122;2022-12-31T15:49:56;18.42;;;4.88;;
67597;SDS011;62026;39.230;9.122;2022-12-31T15:55:05;12.13;;;4.85;;
67597;SDS011;62026;39.230;9.122;2022-12-31T15:57:44;14.43;;;4.38;;
67597;SDS011;62026;39.230;9.122;2022-12-31T16:00:15;15.48;;;5.20;;
67597;SDS011;62026;39.230;9.122;2022-12-31T16:02:46;15.88;;;5.10;;
67597;SDS011;62026;39.230;9.122;2022-12-31T16:05:23;22.80;;;5.55;;
67597;SDS011;62026;39.230;9.122;2022-12-31T16:07:54;15.48;;;5.55;;
67597;SDS011;62026;39.230;9.122;2022-12-31T16:10:25;18.08;;;5.70;;
67597;SDS011;62026;39.230;9.122;2022-12-31T16:12:55;18.70;;;5.97;;
67597;SDS011;62026;39.230;9.122;2022-12-31T16:15:31;26.35;;;7.15;;
67597;SDS011;62026;39.230;9.122;2022-12-31T16:18:00;14.10;;;5.20;;
67597;SDS011;62026;39.230;9.122;2022-12-31T16:20:30;16.77;;;5.82;;
67597;SDS011;62026;39.230;9.122;2022-12-31T16:22:59;27.75;;;6.35;;
67597;SDS011;62026;39.230;9.122;2022-12-31T16:25:28;28.27;;;7.45;;
67597;SDS011;62026;39.230;9.122;2022-12-31T16:27:57;19.13;;;7.03;;
67597;SDS011;62026;39.230;9.122;2022-12-31T16:30:27;22.75;;;7.45;;
67597;SDS011;62026;39.230;9.122;2022-12-31T16:33:01;26.20;;;9.20;;
67597;SDS011;62026;39.230;9.122;2022-12-31T16:35:32;21.33;;;7.63;;
67597;SDS011;62026;39.230;9.122;2022-12-31T16:40:42;30.95;;;11.20;;
67597;SDS011;62026;39.230;9.122;2022-12-31T16:45:54;23.50;;;8.05;;
67597;SDS011;62026;39.230;9.122;2022-12-31T16:48:23;18.42;;;9.27;;
67597;SDS011;62026;39.230;9.122;2022-12-31T16:50:52;24.15;;;8.23;;
67597;SDS011;62026;39.230;9.122;2022-12-31T16:53:21;24.48;;;8.30;;
67597;SDS011;62026;39.230;9.122;2022-12-31T16:56:09;34.45;;;9.35;;
67597;SDS011;62026;39.230;9.122;2022-12-31T16:58:46;27.00;;;8.43;;
67597;SDS011;62026;39.230;9.122;2022-12-31T17:01:22;17.25;;;8.48;;
67597;SDS011;62026;39.230;9.122;2022-12-31T17:03:57;21.10;;;9.55;;
67597;SDS011;62026;39.230;9.122;2022-12-31T17:06:27;23.65;;;8.90;;
67597;SDS011;62026;39.230;9.122;2022-12-31T17:14:20;14.93;;;7.53;;
67597;SDS011;62026;39.230;9.122;2022-12-31T17:17:04;20.52;;;8.27;;
67597;SDS011;62026;39.230;9.122;2022-12-31T17:19:33;24.57;;;7.97;;
67597;SDS011;62026;39.230;9.122;2022-12-31T17:25:06;22.88;;;9.32;;
67597;SDS011;62026;39.230;9.122;2022-12-31T17:35:39;27.02;;;10.00;;
67597;SDS011;62026;39.230;9.122;2022-12-31T17:38:41;24.13;;;10.70;;
67597;SDS011;62026;39.230;9.122;2022-12-31T17:43:30;41.42;;;19.52;;
67597;SDS011;62026;39.230;9.122;2022-12-31T17:45:59;44.58;;;19.98;;
67597;SDS011;62026;39.230;9.122;2022-12-31T17:48:26;36.08;;;19.52;;
67597;SDS011;62026;39.230;9.122;2022-12-31T17:50:57;48.22;;;20.33;;
67597;SDS011;62026;39.230;9.122;2022-12-31T17:53:25;45.10;;;22.63;;
67597;SDS011;62026;39.230;9.122;2022-12-31T17:55:51;49.40;;;23.70;;
67597;SDS011;62026;39.230;9.122;2022-12-31T17:58:35;47.42;;;22.88;;
67597;SDS011;62026;39.230;9.122;2022-12-31T18:01:20;52.92;;;25.35;;
67597;SDS011;62026;39.230;9.122;2022-12-31T18:03:47;43.38;;;23.77;;
67597;SDS011;62026;39.230;9.122;2022-12-31T18:06:14;49.20;;;22.05;;
67597;SDS011;62026;39.230;9.122;2022-12-31T18:08:43;55.42;;;23.60;;
67597;SDS011;62026;39.230;9.122;2022-12-31T18:11:11;52.50;;;24.85;;
67597;SDS011;62026;39.230;9.122;2022-12-31T18:13:42;53.97;;;25.70;;
67597;SDS011;62026;39.230;9.122;2022-12-31T18:16:09;51.17;;;24.75;;
67597;SDS011;62026;39.230;9.122;2022-12-31T18:18:35;45.47;;;23.13;;
67597;SDS011;62026;39.230;9.122;2022-12-31T18:21:04;53.00;;;24.63;;
67597;SDS011;62026;39.230;9.122;2022-12-31T18:23:51;55.38;;;26.50;;
67597;SDS011;62026;39.230;9.122;2022-12-31T18:26:18;62.97;;;30.10;;
67597;SDS011;62026;39.230;9.122;2022-12-31T18:28:47;56.35;;;28.63;;
67597;SDS011;62026;39.230;9.122;2022-12-31T18:31:21;60.60;;;32.75;;
67597;SDS011;62026;39.230;9.122;2022-12-31T18:33:53;70.93;;;34.75;;
67597;SDS011;62026;39.230;9.122;2022-12-31T18:36:22;66.18;;;31.90;;
67597;SDS011;62026;39.230;9.122;2022-12-31T18:38:49;61.95;;;31.85;;
67597;SDS011;62026;39.230;9.122;2022-12-31T18:41:17;66.95;;;32.58;;
67597;SDS011;62026;39.230;9.122;2022-12-31T18:43:51;63.28;;;31.05;;
67597;SDS011;62026;39.230;9.122;2022-12-31T18:46:19;57.30;;;31.13;;
67597;SDS011;62026;39.230;9.122;2022-12-31T18:48:48;61.55;;;32.95;;
67597;SDS011;62026;39.230;9.122;2022-12-31T18:51:14;64.35;;;34.50;;
67597;SDS011;62026;39.230;9.122;2022-12-31T18:53:43;66.05;;;33.10;;
67597;SDS011;62026;39.230;9.122;2022-12-31T18:56:14;61.70;;;33.60;;
67597;SDS011;62026;39.230;9.122;2022-12-31T18:58:43;80.63;;;42.70;;
67597;SDS011;62026;39.230;9.122;2022-12-31T19:04:19;87.75;;;45.83;;
67597;SDS011;62026;39.230;9.122;2022-12-31T19:06:45;90.07;;;46.90;;
67597;SDS011;62026;39.230;9.122;2022-12-31T19:09:13;85.13;;;44.83;;
67597;SDS011;62026;39.230;9.122;2022-12-31T19:11:41;93.65;;;45.45;;
67597;SDS011;62026;39.230;9.122;2022-12-31T19:14:18;85.45;;;44.80;;
67597;SDS011;62026;39.230;9.122;2022-12-31T19:16:48;89.97;;;50.65;;
67597;SDS011;62026;39.230;9.122;2022-12-31T19:19:16;92.28;;;50.47;;
67597;SDS011;62026;39.230;9.122;2022-12-31T19:21:42;85.50;;;50.00;;
67597;SDS011;62026;39.230;9.122;2022-12-31T19:24:27;93.88;;;47.92;;
67597;SDS011;62026;39.230;9.122;2022-12-31T19:26:54;84.15;;;49.95;;
67597;SDS011;62026;39.230;9.122;2022-12-31T19:29:20;88.22;;;50.22;;
67597;SDS011;62026;39.230;9.122;2022-12-31T19:31:51;87.68;;;49.83;;
67597;SDS011;62026;39.230;9.122;2022-12-31T19:34:18;94.78;;;51.20;;
67597;SDS011;62026;39.230;9.122;2022-12-31T19:36:44;88.72;;;50.63;;
67597;SDS011;62026;39.230;9.122;2022-12-31T19:39:14;88.13;;;50.35;;
67597;SDS011;62026;39.230;9.122;2022-12-31T19:41:44;115.35;;;59.13;;
67597;SDS011;62026;39.230;9.122;2022-12-31T19:44:14;109.45;;;61.50;;
67597;SDS011;62026;39.230;9.122;2022-12-31T19:46:43;105.67;;;61.00;;
67597;SDS011;62026;39.230;9.122;2022-12-31T19:49:11;116.72;;;63.70;;
67597;SDS011;62026;39.230;9.122;2022-12-31T19:51:38;114.13;;;60.72;;
67597;SDS011;62026;39.230;9.122;2022-12-31T19:54:05;119.10;;;64.82;;
67597;SDS011;62026;39.230;9.122;2022-12-31T19:56:32;107.90;;;61.45;;
67597;SDS011;62026;39.230;9.122;2022-12-31T19:59:05;109.85;;;60.85;;
67597;SDS011;62026;39.230;9.122;2022-12-31T20:01:33;107.13;;;62.13;;
67597;SDS011;62026;39.230;9.122;2022-12-31T20:03:59;107.45;;;60.42;;
67597;SDS011;62026;39.230;9.122;2022-12-31T20:06:25;120.15;;;64.10;;
67597;SDS011;62026;39.230;9.122;2022-12-31T20:08:51;106.00;;;59.65;;
67597;SDS011;62026;39.230;9.122;2022-12-31T20:11:19;97.20;;;53.08;;
67597;SDS011;62026;39.230;9.122;2022-12-31T20:13:48;81.60;;;44.35;;
67597;SDS011;62026;39.230;9.122;2022-12-31T20:16:17;85.78;;;44.42;;
67597;SDS011;62026;39.230;9.122;2022-12-31T20:18:45;80.50;;;42.42;;
67597;SDS011;62026;39.230;9.122;2022-12-31T20:21:14;71.88;;;38.80;;
67597;SDS011;62026;39.230;9.122;2022-12-31T20:23:43;76.32;;;39.60;;
67597;SDS011;62026;39.230;9.122;2022-12-31T20:26:10;81.13;;;40.08;;
67597;SDS011;62026;39.230;9.122;2022-12-31T20:28:37;79.80;;;39.70;;
67597;SDS011;62026;39.230;9.122;2022-12-31T20:31:04;77.38;;;40.63;;
67597;SDS011;62026;39.230;9.122;2022-12-31T20:33:36;68.80;;;39.55;;